createdAt,value
2023-01-02T00:01:39.710Z,51.53
2023-01-02T00:04:07.378Z,49.77
2023-01-02T00:06:35.079Z,50.40
2023-01-02T00:09:04.309Z,49.53
2023-01-02T00:11:32.014Z,52.27
2023-01-02T00:13:59.649Z,53.00
2023-01-02T00:16:27.336Z,48.47
2023-01-02T00:18:55.068Z,49.60
2023-01-02T00:21:22.773Z,48.03
2023-01-02T00:23:50.385Z,37.60
2023-01-02T00:26:19.418Z,35.30
2023-01-02T00:28:47.039Z,33.93
2023-01-02T00:31:15.175Z,34.83
2023-01-02T00:33:43.531Z,46.67
2023-01-02T00:36:11.852Z,37.17
2023-01-02T00:38:41.039Z,42.70
2023-01-02T00:41:08.753Z,32.03
2023-01-02T00:43:37.854Z,31.53
2023-01-02T00:46:11.218Z,32.40
2023-01-02T00:48:39.898Z,32.47
2023-01-02T00:51:07.557Z,35.17
2023-01-02T00:53:35.197Z,30.03
2023-01-02T00:56:02.885Z,27.73
2023-01-02T00:58:30.547Z,27.17
2023-01-02T01:00:59.562Z,33.33
2023-01-02T01:03:27.286Z,36.83
2023-01-02T01:05:54.904Z,41.07
2023-01-02T01:08:22.582Z,43.33
2023-01-02T01:13:47.859Z,48.50
2023-01-02T01:16:17.652Z,50.93
2023-01-02T01:18:46.053Z,62.07
2023-01-02T01:21:14.368Z,66.77
2023-01-02T01:23:42.149Z,70.23
2023-01-02T01:26:10.985Z,64.33
2023-01-02T01:28:38.906Z,67.10
2023-01-02T01:31:07.260Z,67.87
2023-01-02T01:33:36.605Z,70.73
2023-01-02T01:36:04.655Z,84.60
2023-01-02T01:38:32.343Z,110.13
2023-01-02T01:41:00.541Z,110.37
2023-01-02T01:43:38.112Z,106.00
2023-01-02T01:46:07.237Z,102.70
2023-01-02T01:48:36.581Z,85.27
2023-01-02T01:51:04.408Z,84.27
2023-01-02T01:53:32.670Z,92.37
2023-01-02T01:56:02.637Z,90.10
2023-01-02T01:58:31.353Z,90.73
2023-01-02T02:00:59.551Z,92.03
2023-01-02T02:03:29.815Z,89.83
2023-01-02T02:06:00.680Z,88.57
2023-01-02T02:08:31.432Z,98.37
2023-01-02T02:10:59.798Z,91.70
2023-01-02T02:13:27.611Z,90.17
2023-01-02T02:16:00.830Z,92.93
2023-01-02T02:18:35.364Z,86.77
2023-01-02T02:21:13.362Z,88.33
2023-01-02T02:23:56.087Z,85.90
2023-01-02T02:26:45.277Z,84.07
2023-01-02T02:29:36.616Z,86.03
2023-01-02T02:32:09.315Z,84.07
2023-01-02T02:34:41.232Z,86.87
2023-01-02T02:37:14.449Z,86.63
2023-01-02T02:39:46.766Z,81.40
2023-01-02T02:42:21.080Z,86.00
2023-01-02T02:44:55.333Z,87.13
2023-01-02T02:47:30.606Z,83.17
2023-01-02T02:50:02.938Z,88.33
2023-01-02T02:52:32.794Z,83.27
2023-01-02T02:55:02.493Z,87.17
2023-01-02T02:57:31.499Z,88.87
2023-01-02T02:59:59.258Z,89.30
2023-01-02T03:02:28.378Z,84.43
2023-01-02T03:04:58.079Z,82.37
2023-01-02T03:07:28.044Z,86.67
2023-01-02T03:10:00.712Z,81.83
2023-01-02T03:12:35.723Z,83.23
2023-01-02T03:15:08.821Z,90.77
2023-01-02T03:17:43.011Z,83.90
2023-01-02T03:20:14.040Z,75.73
2023-01-02T03:22:44.361Z,72.90
2023-01-02T03:25:13.103Z,88.40
2023-01-02T03:27:43.291Z,75.93
2023-01-02T03:30:14.927Z,75.23
2023-01-02T03:32:45.424Z,76.77
2023-01-02T03:35:15.556Z,72.37
2023-01-02T03:37:47.351Z,64.93
2023-01-02T03:40:17.944Z,62.60
2023-01-02T03:42:46.962Z,57.27
2023-01-02T03:45:17.305Z,62.50
2023-01-02T03:47:50.393Z,59.87
2023-01-02T03:50:20.900Z,60.53
2023-01-02T03:52:48.643Z,69.40
2023-01-02T03:55:16.611Z,64.20
2023-01-02T03:57:55.188Z,66.20
2023-01-02T04:00:27.287Z,61.47
2023-01-02T04:03:00.376Z,56.13
2023-01-02T04:05:31.478Z,61.13
2023-01-02T04:08:01.056Z,57.93
2023-01-02T04:10:29.551Z,61.17
2023-01-02T04:12:59.668Z,65.87
2023-01-02T04:15:28.433Z,66.03
2023-01-02T04:17:58.251Z,65.63
2023-01-02T04:20:29.240Z,66.10
2023-01-02T04:23:00.823Z,62.23
2023-01-02T04:25:31.684Z,60.70
2023-01-02T04:28:00.732Z,57.43
2023-01-02T04:30:29.766Z,56.40
2023-01-02T04:32:59.559Z,62.00
2023-01-02T04:35:27.548Z,64.40
2023-01-02T04:37:55.153Z,60.93
2023-01-02T04:40:24.585Z,62.13
2023-01-02T04:42:52.473Z,64.90
2023-01-02T04:45:20.093Z,60.47
2023-01-02T04:47:48.898Z,69.13
2023-01-02T04:50:18.202Z,55.90
2023-01-02T04:52:45.863Z,60.07
2023-01-02T04:55:13.688Z,61.13
2023-01-02T04:57:41.312Z,64.53
2023-01-02T05:00:10.181Z,64.80
2023-01-02T05:02:38.447Z,60.53
2023-01-02T05:05:07.319Z,53.67
2023-01-02T05:07:36.507Z,55.77
2023-01-02T05:10:04.454Z,63.23
2023-01-02T05:12:34.695Z,57.93
2023-01-02T05:15:02.816Z,61.80
2023-01-02T05:17:30.684Z,57.67
2023-01-02T05:19:58.761Z,57.23
2023-01-02T05:22:43.507Z,54.57
2023-01-02T05:25:12.484Z,57.07
2023-01-02T05:27:41.079Z,53.60
2023-01-02T05:30:09.377Z,49.93
2023-01-02T05:32:37.144Z,47.87
2023-01-02T05:35:05.360Z,47.97
2023-01-02T05:37:33.058Z,46.90
2023-01-02T05:40:00.733Z,52.03
2023-01-02T05:42:29.739Z,50.70
2023-01-02T05:44:57.432Z,47.50
2023-01-02T05:47:25.106Z,40.03
2023-01-02T05:49:52.738Z,36.57
2023-01-02T05:52:20.424Z,36.57
2023-01-02T05:54:48.087Z,36.43
2023-01-02T05:57:16.451Z,41.90
2023-01-02T05:59:45.536Z,36.40
2023-01-02T06:02:13.231Z,37.30
2023-01-02T06:04:40.939Z,31.37
2023-01-02T06:07:08.593Z,28.87
2023-01-02T06:09:36.225Z,34.47
2023-01-02T06:12:03.919Z,37.20
2023-01-02T06:14:31.641Z,32.97
2023-01-02T06:17:00.667Z,33.10
2023-01-02T06:19:28.961Z,32.40
2023-01-02T06:21:56.581Z,34.27
2023-01-02T06:24:24.193Z,33.43
2023-01-02T06:26:51.922Z,34.20
2023-01-02T06:29:19.584Z,30.10
2023-01-02T06:31:51.267Z,31.97
2023-01-02T06:34:20.996Z,29.37
2023-01-02T06:36:48.628Z,29.37
2023-01-02T06:39:16.281Z,29.83
2023-01-02T06:41:43.942Z,31.40
2023-01-02T06:44:13.197Z,32.57
2023-01-02T06:46:40.869Z,32.70
2023-01-02T06:49:08.536Z,33.20
2023-01-02T06:51:37.592Z,31.97
2023-01-02T06:54:05.630Z,30.70
2023-01-02T06:56:33.332Z,29.10
2023-01-02T06:59:00.984Z,30.13
2023-01-02T07:01:30.010Z,29.73
2023-01-02T07:03:57.777Z,28.70
2023-01-02T07:06:27.826Z,27.97
2023-01-02T07:08:57.025Z,27.40
2023-01-02T07:11:25.788Z,24.43
2023-01-02T07:13:54.772Z,25.50
2023-01-02T07:16:23.097Z,28.13
2023-01-02T07:18:52.467Z,27.87
2023-01-02T07:21:20.147Z,25.03
2023-01-02T07:23:47.977Z,23.50
2023-01-02T07:26:17.229Z,25.23
2023-01-02T07:28:44.927Z,20.83
2023-01-02T07:31:14.167Z,20.77
2023-01-02T07:33:41.987Z,22.73
2023-01-02T07:36:11.453Z,22.97
2023-01-02T07:38:39.546Z,22.60
2023-01-02T07:41:13.340Z,24.77
2023-01-02T07:43:42.425Z,27.03
2023-01-02T07:46:10.262Z,25.07
2023-01-02T07:48:37.947Z,27.13
2023-01-02T07:51:06.713Z,25.73
2023-01-02T07:53:34.861Z,24.97
2023-01-02T07:56:02.920Z,24.27
2023-01-02T07:58:30.655Z,25.37
2023-01-02T08:01:05.090Z,22.87
2023-01-02T08:03:33.563Z,23.80
2023-01-02T08:06:04.664Z,29.00
2023-01-02T08:08:32.362Z,22.17
2023-01-02T08:11:00.171Z,24.50
2023-01-02T08:13:27.841Z,27.53
2023-01-02T08:15:55.449Z,20.80
2023-01-02T08:18:24.575Z,24.53
2023-01-02T08:20:52.243Z,25.53
2023-01-02T08:23:19.913Z,23.07
2023-01-02T08:25:50.340Z,25.77
2023-01-02T08:28:21.803Z,23.47
2023-01-02T08:30:49.547Z,24.57
2023-01-02T08:33:17.218Z,24.03
2023-01-02T08:35:46.241Z,23.53
2023-01-02T08:38:14.049Z,21.73
2023-01-02T08:40:41.711Z,21.87
2023-01-02T08:43:09.592Z,22.97
2023-01-02T08:45:37.546Z,20.13
2023-01-02T08:48:20.887Z,22.93
2023-01-02T08:50:50.851Z,22.73
2023-01-02T08:53:18.580Z,21.93
2023-01-02T08:55:46.279Z,23.40
2023-01-02T08:58:14.252Z,23.07
2023-01-02T09:00:41.924Z,24.97
2023-01-02T09:03:09.628Z,26.43
2023-01-02T09:05:37.346Z,27.43
2023-01-02T09:08:06.454Z,26.87
2023-01-02T09:10:34.143Z,26.23
2023-01-02T09:13:01.809Z,25.70
2023-01-02T09:15:29.639Z,27.67
2023-01-02T09:17:57.327Z,27.63
2023-01-02T09:20:26.704Z,27.03
2023-01-02T09:22:54.348Z,27.73
2023-01-02T09:25:24.595Z,28.63
2023-01-02T09:27:52.611Z,28.93
2023-01-02T09:30:20.427Z,29.87
2023-01-02T09:32:49.183Z,29.57
2023-01-02T09:35:17.026Z,28.87
2023-01-02T09:37:44.639Z,28.70
2023-01-02T09:40:14.507Z,28.63
2023-01-02T09:42:44.139Z,29.87
2023-01-02T09:45:12.222Z,29.33
2023-01-02T09:47:40.660Z,28.10
2023-01-02T09:50:12.060Z,28.93
2023-01-02T09:52:41.308Z,28.10
2023-01-02T09:55:15.137Z,29.67
2023-01-02T09:57:46.382Z,29.53
2023-01-02T10:00:17.411Z,30.97
2023-01-02T10:02:49.976Z,28.93
2023-01-02T10:05:43.235Z,29.43
2023-01-02T10:08:14.271Z,31.50
2023-01-02T10:10:42.883Z,29.30
2023-01-02T10:13:14.752Z,30.07
2023-01-02T10:15:43.718Z,29.60
2023-01-02T10:18:15.332Z,28.23
2023-01-02T10:20:44.747Z,29.27
2023-01-02T10:23:14.290Z,28.13
2023-01-02T10:25:48.100Z,28.00
2023-01-02T10:28:25.814Z,28.97
2023-01-02T10:30:55.871Z,28.20
2023-01-02T10:33:26.031Z,29.47
2023-01-02T10:35:55.379Z,27.93
2023-01-02T10:38:23.352Z,27.60
2023-01-02T10:40:51.745Z,28.03
2023-01-02T10:43:19.532Z,29.40
2023-01-02T10:45:48.601Z,27.70
2023-01-02T10:48:16.224Z,27.53
2023-01-02T10:50:47.558Z,28.73
2023-01-02T10:53:21.553Z,30.37
2023-01-02T10:55:49.312Z,26.40
2023-01-02T10:58:20.686Z,28.10
2023-01-02T11:00:50.377Z,31.40
2023-01-02T11:03:18.939Z,29.60
2023-01-02T11:05:48.157Z,29.03
2023-01-02T11:08:16.887Z,31.23
2023-01-02T11:10:45.413Z,31.70
2023-01-02T11:13:14.206Z,29.67
2023-01-02T11:15:48.481Z,29.10
2023-01-02T11:18:21.901Z,30.47
2023-01-02T11:20:50.960Z,30.27
2023-01-02T11:23:22.265Z,29.77
2023-01-02T11:25:51.517Z,30.87
2023-01-02T11:28:20.573Z,31.83
2023-01-02T11:30:48.886Z,32.97
2023-01-02T11:33:22.480Z,32.53
2023-01-02T11:35:51.951Z,32.70
2023-01-02T11:38:29.512Z,34.43
2023-01-02T11:40:59.640Z,32.03
2023-01-02T11:43:52.085Z,31.17
2023-01-02T11:46:27.501Z,32.03
2023-01-02T11:48:58.696Z,31.70
2023-01-02T11:51:27.771Z,31.37
2023-01-02T11:53:55.774Z,31.70
2023-01-02T11:56:26.360Z,31.63
2023-01-02T11:58:56.136Z,32.23
2023-01-02T12:01:28.926Z,32.60
2023-01-02T12:03:58.485Z,30.90
2023-01-02T12:06:27.596Z,32.13
2023-01-02T12:09:06.020Z,31.33
2023-01-02T12:11:50.840Z,32.30
2023-01-02T12:14:20.005Z,30.47
2023-01-02T12:16:53.076Z,30.20
2023-01-02T12:19:36.162Z,30.47
2023-01-02T12:22:12.242Z,30.70
2023-01-02T12:25:04.107Z,30.80
2023-01-02T12:27:34.794Z,30.87
2023-01-02T12:30:04.924Z,27.77
2023-01-02T12:32:56.310Z,28.43
2023-01-02T12:35:34.421Z,26.30
2023-01-02T12:38:05.754Z,25.27
2023-01-02T12:40:41.767Z,24.67
2023-01-02T12:43:27.424Z,24.83
2023-01-02T12:45:59.289Z,25.83
2023-01-02T12:48:36.539Z,23.17
2023-01-02T12:51:07.225Z,22.93
2023-01-02T12:53:45.158Z,23.87
2023-01-02T12:56:16.473Z,22.37
2023-01-02T12:58:53.534Z,21.37
2023-01-02T13:01:22.922Z,22.40
2023-01-02T13:03:55.184Z,17.63
2023-01-02T13:06:44.836Z,19.13
2023-01-02T13:09:22.287Z,17.77
2023-01-02T13:11:53.215Z,15.93
2023-01-02T13:14:22.814Z,12.90
2023-01-02T13:16:51.848Z,14.80
2023-01-02T13:19:22.765Z,12.60
2023-01-02T13:21:52.957Z,14.00
2023-01-02T13:24:24.229Z,14.23
2023-01-02T13:26:52.739Z,15.13
2023-01-02T13:29:22.342Z,16.20
2023-01-02T13:31:50.861Z,15.43
2023-01-02T13:34:21.913Z,19.17
2023-01-02T13:36:50.719Z,16.67
2023-01-02T13:39:20.175Z,17.43
2023-01-02T13:42:09.774Z,17.47
2023-01-02T13:44:39.105Z,20.67
2023-01-02T13:47:11.265Z,22.30
2023-01-02T13:49:38.991Z,21.40
2023-01-02T13:52:06.730Z,21.57
2023-01-02T13:54:37.997Z,20.77
2023-01-02T13:57:26.439Z,22.07
2023-01-02T13:59:59.802Z,20.10
2023-01-02T14:02:27.814Z,20.73
2023-01-02T14:04:55.559Z,21.87
2023-01-02T14:07:38.173Z,21.67
2023-01-02T14:10:13.027Z,20.90
2023-01-02T14:12:42.500Z,22.40
2023-01-02T14:15:16.900Z,22.13
2023-01-02T14:17:48.590Z,22.63
2023-01-02T14:20:20.869Z,23.47
2023-01-02T14:22:50.166Z,24.97
2023-01-02T14:25:18.132Z,24.60
2023-01-02T14:27:50.641Z,22.57
2023-01-02T14:30:22.739Z,24.20
2023-01-02T14:32:52.904Z,24.27
2023-01-02T14:35:25.694Z,24.73
2023-01-02T14:37:54.902Z,22.30
2023-01-02T14:40:35.075Z,22.70
2023-01-02T14:43:21.571Z,22.07
2023-01-02T14:45:51.708Z,23.47
2023-01-02T14:48:22.964Z,24.53
2023-01-02T14:50:55.629Z,24.83
2023-01-02T14:53:24.410Z,25.37
2023-01-02T14:55:53.058Z,21.83
2023-01-02T14:58:24.892Z,20.93
2023-01-02T15:00:56.590Z,21.57
2023-01-02T15:03:31.646Z,23.60
2023-01-02T15:06:00.951Z,20.93
2023-01-02T15:08:34.093Z,20.47
2023-01-02T15:11:23.302Z,24.60
2023-01-02T15:14:05.242Z,23.00
2023-01-02T15:16:38.164Z,23.60
2023-01-02T15:19:07.030Z,22.80
2023-01-02T15:21:39.681Z,22.17
2023-01-02T15:24:14.772Z,23.00
2023-01-02T15:26:44.835Z,24.10
2023-01-02T15:29:20.890Z,27.03
2023-01-02T15:31:54.252Z,26.60
2023-01-02T15:34:25.631Z,26.67
2023-01-02T15:36:53.582Z,25.43
2023-01-02T15:39:22.512Z,26.40
2023-01-02T15:41:55.419Z,27.33
2023-01-02T15:44:41.844Z,33.07
2023-01-02T15:47:11.291Z,24.90
2023-01-02T15:49:40.711Z,33.20
2023-01-02T15:52:09.124Z,27.77
2023-01-02T15:54:37.512Z,33.60
2023-01-02T15:57:12.514Z,35.30
2023-01-02T15:59:40.522Z,38.43
2023-01-02T16:02:18.918Z,37.77
2023-01-02T16:04:48.453Z,34.23
2023-01-02T16:07:19.841Z,36.87
2023-01-02T16:09:52.673Z,40.43
2023-01-02T16:12:21.453Z,42.73
2023-01-02T16:14:53.055Z,35.80
2023-01-02T16:17:23.969Z,34.60
2023-01-02T16:19:58.679Z,49.57
2023-01-02T16:22:27.855Z,44.90
2023-01-02T16:24:59.506Z,39.00
2023-01-02T16:27:28.413Z,39.43
2023-01-02T16:29:56.342Z,35.10
2023-01-02T16:32:28.781Z,36.97
2023-01-02T16:35:02.277Z,41.17
2023-01-02T16:37:34.192Z,33.53
2023-01-02T16:41:00.350Z,30.70
2023-01-02T16:43:15.773Z,26.87
2023-01-02T16:45:43.633Z,25.63
2023-01-02T16:48:14.040Z,26.07
2023-01-02T16:50:44.348Z,28.70
2023-01-02T16:53:14.997Z,26.33
2023-01-02T16:55:42.671Z,26.20
2023-01-02T16:58:10.309Z,28.87
2023-01-02T17:00:43.121Z,25.83
2023-01-02T17:03:14.932Z,32.20
2023-01-02T17:05:45.394Z,30.87
2023-01-02T17:08:13.007Z,32.07
2023-01-02T17:10:41.333Z,31.33
2023-01-02T17:13:09.271Z,27.47
2023-01-02T17:15:36.916Z,26.47
2023-01-02T17:18:04.956Z,27.83
2023-01-02T17:20:32.687Z,26.40
2023-01-02T17:23:01.996Z,30.27
2023-01-02T17:25:29.692Z,30.53
2023-01-02T17:27:57.404Z,28.53
2023-01-02T17:30:25.907Z,29.93
2023-01-02T17:32:57.321Z,32.23
2023-01-02T17:35:27.772Z,32.53
2023-01-02T17:37:55.444Z,33.63
2023-01-02T17:40:24.541Z,32.97
2023-01-02T17:42:52.173Z,33.67
2023-01-02T17:45:20.080Z,31.07
2023-01-02T17:48:02.122Z,33.60
2023-01-02T17:50:32.423Z,30.27
2023-01-02T17:53:00.312Z,34.97
2023-01-02T17:55:29.359Z,36.33
2023-01-02T17:57:57.032Z,31.03
2023-01-02T18:00:24.754Z,35.00
2023-01-02T18:02:53.218Z,33.10
2023-01-02T18:05:22.100Z,35.50
2023-01-02T18:07:49.782Z,35.47
2023-01-02T18:10:20.411Z,35.73
2023-01-02T18:12:50.303Z,37.23
2023-01-02T18:15:18.673Z,47.90
2023-01-02T18:17:46.353Z,37.90
2023-01-02T18:20:15.528Z,33.47
2023-01-02T18:22:48.958Z,30.73
2023-01-02T18:25:19.577Z,33.60
2023-01-02T18:27:47.640Z,36.77
2023-01-02T18:30:18.757Z,28.20
2023-01-02T18:32:46.861Z,37.50
2023-01-02T18:35:37.912Z,36.10
2023-01-02T18:38:07.588Z,36.53
2023-01-02T18:40:35.559Z,35.00
2023-01-02T18:43:15.150Z,37.20
2023-01-02T18:45:44.278Z,36.90
2023-01-02T18:48:15.368Z,37.93
2023-01-02T18:50:46.507Z,37.33
2023-01-02T18:53:17.022Z,36.93
2023-01-02T18:55:44.727Z,32.20
2023-01-02T18:58:36.478Z,36.80
2023-01-02T19:01:16.037Z,31.90
2023-01-02T19:03:46.196Z,33.37
2023-01-02T19:06:17.894Z,35.97
2023-01-02T19:08:45.576Z,37.53
2023-01-02T19:11:29.497Z,30.73
2023-01-02T19:13:59.036Z,31.17
2023-01-02T19:16:28.222Z,26.53
2023-01-02T19:18:56.407Z,30.53
2023-01-02T19:21:27.918Z,27.77
2023-01-02T19:23:58.464Z,33.13
2023-01-02T19:26:29.850Z,33.30
2023-01-02T19:29:00.976Z,34.93
2023-01-02T19:31:37.459Z,35.27
2023-01-02T19:34:05.303Z,32.83
2023-01-02T19:36:36.936Z,37.10
2023-01-02T19:39:12.763Z,34.57
2023-01-02T19:41:58.012Z,32.20
2023-01-02T19:44:25.744Z,34.13
2023-01-02T19:46:54.844Z,34.60
2023-01-02T19:49:22.466Z,36.53
2023-01-02T19:51:50.271Z,39.37
2023-01-02T19:54:17.943Z,79.50
2023-01-02T19:56:45.591Z,67.83
2023-01-02T19:59:13.313Z,68.87
2023-01-02T20:01:41.062Z,85.40
2023-01-02T20:04:10.093Z,93.03
2023-01-02T20:06:37.853Z,113.97
2023-01-02T20:09:05.480Z,105.27
2023-01-02T20:11:50.836Z,103.53
2023-01-02T20:14:18.464Z,97.33
2023-01-02T20:16:46.148Z,85.80
2023-01-02T20:19:15.183Z,83.87
2023-01-02T20:21:42.885Z,99.07
2023-01-02T20:24:10.489Z,82.27
2023-01-02T20:26:38.189Z,94.23
2023-01-02T20:29:05.935Z,91.53
2023-01-02T20:31:33.653Z,87.40
2023-01-02T20:34:01.435Z,90.07
2023-01-02T20:36:30.441Z,84.53
2023-01-02T20:38:58.096Z,94.27
2023-01-02T20:41:25.776Z,90.77
2023-01-02T20:43:53.441Z,90.03
2023-01-02T20:46:21.091Z,83.53
2023-01-02T20:48:48.802Z,79.40
2023-01-02T20:51:16.450Z,84.13
2023-01-02T20:53:45.461Z,83.70
2023-01-02T20:56:13.177Z,81.30
2023-01-02T20:58:40.797Z,81.80
2023-01-02T21:01:08.411Z,80.33
2023-01-02T21:03:36.253Z,82.40
2023-01-02T21:06:04.044Z,85.73
2023-01-02T21:08:32.189Z,80.23
2023-01-02T21:11:01.202Z,86.23
2023-01-02T21:13:28.864Z,86.47
2023-01-02T21:15:58.038Z,73.43
2023-01-02T21:18:26.490Z,75.57
2023-01-02T21:20:55.072Z,65.73
2023-01-02T21:23:23.436Z,66.83
2023-01-02T21:25:51.569Z,59.93
2023-01-02T21:28:21.282Z,59.50
2023-01-02T21:30:49.234Z,69.73
2023-01-02T21:33:17.675Z,62.40
2023-01-02T21:35:47.007Z,70.63
2023-01-02T21:38:15.005Z,69.53
2023-01-02T21:40:42.838Z,64.83
2023-01-02T21:43:10.962Z,68.43
2023-01-02T21:45:40.015Z,68.33
2023-01-02T21:48:08.189Z,59.33
2023-01-02T21:50:35.881Z,50.13
2023-01-02T21:53:03.504Z,57.57
2023-01-02T21:55:31.206Z,62.17
2023-01-02T21:58:15.103Z,64.50
2023-01-02T22:00:44.573Z,58.80
2023-01-02T22:03:12.456Z,62.40
2023-01-02T22:05:40.318Z,62.83
2023-01-02T22:08:08.272Z,45.60
2023-01-02T22:10:35.922Z,67.80
2023-01-02T22:13:03.550Z,65.33
2023-01-02T22:15:31.356Z,62.17
2023-01-02T22:18:00.393Z,59.43
2023-01-02T22:20:28.471Z,64.73
2023-01-02T22:22:56.144Z,62.70
2023-01-02T22:25:23.962Z,64.37
2023-01-02T22:27:51.636Z,67.63
2023-01-02T22:30:23.392Z,69.43
2023-01-02T22:32:55.698Z,68.17
2023-01-02T22:35:24.798Z,66.33
2023-01-02T22:37:52.476Z,64.23
2023-01-02T22:40:20.351Z,68.60
2023-01-02T22:43:01.038Z,68.63
2023-01-02T22:45:31.733Z,70.97
2023-01-02T22:48:00.333Z,71.00
2023-01-02T22:50:31.813Z,77.03
2023-01-02T22:53:00.036Z,71.97
2023-01-02T22:55:27.664Z,82.20
2023-01-02T22:57:55.287Z,75.77
2023-01-02T23:00:23.561Z,80.97
2023-01-02T23:02:51.577Z,83.77
2023-01-02T23:05:20.113Z,86.20
2023-01-02T23:07:50.081Z,86.90
2023-01-02T23:10:17.918Z,88.90
2023-01-02T23:12:45.565Z,90.03
2023-01-02T23:15:14.114Z,87.17
2023-01-02T23:17:58.942Z,91.23
2023-01-02T23:20:27.175Z,90.83
2023-01-02T23:22:56.726Z,90.20
2023-01-02T23:25:24.371Z,95.13
2023-01-02T23:27:51.975Z,95.90
2023-01-02T23:30:19.691Z,95.17
2023-01-02T23:32:47.359Z,94.90
2023-01-02T23:35:14.978Z,92.87
2023-01-02T23:37:42.695Z,95.00
2023-01-02T23:40:12.767Z,97.13
2023-01-02T23:42:40.384Z,92.30
2023-01-02T23:45:08.536Z,94.33
2023-01-02T23:47:36.186Z,87.17
2023-01-02T23:50:03.808Z,83.83
2023-01-02T23:52:31.565Z,84.10
2023-01-02T23:54:59.173Z,82.83
2023-01-02T23:57:28.458Z,82.17
2023-01-02T23:59:56.253Z,84.87
